sensor_id;sensor_type;location;lat;lon;timestamp;temperature;humidity
47961;DHT22;33721;48.852;9.936;2023-06-22T00:01:15;19.90;99.90
47961;DHT22;33721;48.852;9.936;2023-06-22T00:03:41;19.70;99.90
47961;DHT22;33721;48.852;9.936;2023-06-22T00:06:07;19.60;99.90
47961;DHT22;33721;48.852;9.936;2023-06-22T00:08:32;19.50;99.90
47961;DHT22;33721;48.852;9.936;2023-06-22T00:10:58;19.50;99.90
47961;DHT22;33721;48.852;9.936;2023-06-22T00:13:23;19.60;99.90
47961;DHT22;33721;48.852;9.936;2023-06-22T00:15:49;19.60;99.90
47961;DHT22;33721;48.852;9.936;2023-06-22T00:18:15;19.70;99.90
47961;DHT22;33721;48.852;9.936;2023-06-22T00:20:41;19.70;99.90
47961;DHT22;33721;48.852;9.936;2023-06-22T00:23:07;19.80;99.90
47961;DHT22;33721;48.852;9.936;2023-06-22T00:25:42;19.80;99.90
47961;DHT22;33721;48.852;9.936;2023-06-22T00:28:08;19.80;99.90
47961;DHT22;33721;48.852;9.936;2023-06-22T00:30:35;19.80;99.90
47961;DHT22;33721;48.852;9.936;2023-06-22T00:33:01;19.80;99.90
47961;DHT22;33721;48.852;9.936;2023-06-22T00:35:27;19.80;99.90
47961;DHT22;33721;48.852;9.936;2023-06-22T00:37:56;19.80;99.90
47961;DHT22;33721;48.852;9.936;2023-06-22T00:40:31;19.70;99.90
47961;DHT22;33721;48.852;9.936;2023-06-22T00:42:57;19.70;99.90
47961;DHT22;33721;48.852;9.936;2023-06-22T00:45:23;19.70;99.90
47961;DHT22;33721;48.852;9.936;2023-06-22T00:47:51;19.60;99.90
47961;DHT22;33721;48.852;9.936;2023-06-22T00:50:20;19.50;99.90
47961;DHT22;33721;48.852;9.936;2023-06-22T00:52:56;19.50;99.90
47961;DHT22;33721;48.852;9.936;2023-06-22T00:55:24;19.50;99.90
47961;DHT22;33721;48.852;9.936;2023-06-22T00:57:51;19.40;99.90
47961;DHT22;33721;48.852;9.936;2023-06-22T01:00:22;19.40;99.90
47961;DHT22;33721;48.852;9.936;2023-06-22T01:02:53;19.40;99.90
47961;DHT22;33721;48.852;9.936;2023-06-22T01:05:20;19.40;99.90
47961;DHT22;33721;48.852;9.936;2023-06-22T01:10:31;19.40;99.90
47961;DHT22;33721;48.852;9.936;2023-06-22T01:13:04;19.40;99.90
47961;DHT22;33721;48.852;9.936;2023-06-22T01:15:37;19.40;99.90
47961;DHT22;33721;48.852;9.936;2023-06-22T01:18:05;19.30;99.90
47961;DHT22;33721;48.852;9.936;2023-06-22T01:20:34;19.30;99.90
47961;DHT22;33721;48.852;9.936;2023-06-22T01:25:49;19.30;99.90
47961;DHT22;33721;48.852;9.936;2023-06-22T01:28:42;19.30;99.90
47961;DHT22;33721;48.852;9.936;2023-06-22T01:31:10;19.30;99.90
47961;DHT22;33721;48.852;9.936;2023-06-22T01:33:38;19.30;99.90
47961;DHT22;33721;48.852;9.936;2023-06-22T01:36:05;19.40;99.90
47961;DHT22;33721;48.852;9.936;2023-06-22T01:38:33;19.40;99.90
47961;DHT22;33721;48.852;9.936;2023-06-22T01:41:00;19.40;99.90
47961;DHT22;33721;48.852;9.936;2023-06-22T01:43:27;19.50;99.90
47961;DHT22;33721;48.852;9.936;2023-06-22T01:45:54;19.40;99.90
47961;DHT22;33721;48.852;9.936;2023-06-22T01:48:21;19.30;99.90
47961;DHT22;33721;48.852;9.936;2023-06-22T01:50:47;19.30;99.90
47961;DHT22;33721;48.852;9.936;2023-06-22T01:53:12;19.30;99.90
47961;DHT22;33721;48.852;9.936;2023-06-22T01:55:38;19.30;99.90
47961;DHT22;33721;48.852;9.936;2023-06-22T01:58:04;19.10;99.90
47961;DHT22;33721;48.852;9.936;2023-06-22T02:00:33;18.90;99.90
47961;DHT22;33721;48.852;9.936;2023-06-22T02:03:05;18.60;99.90
47961;DHT22;33721;48.852;9.936;2023-06-22T02:05:38;18.40;99.90
47961;DHT22;33721;48.852;9.936;2023-06-22T02:08:11;18.40;99.90
47961;DHT22;33721;48.852;9.936;2023-06-22T02:10:38;18.30;99.90
47961;DHT22;33721;48.852;9.936;2023-06-22T02:13:07;18.30;99.90
47961;DHT22;33721;48.852;9.936;2023-06-22T02:15:33;18.20;99.90
47961;DHT22;33721;48.852;9.936;2023-06-22T02:18:00;18.10;99.90
47961;DHT22;33721;48.852;9.936;2023-06-22T02:20:26;18.10;99.90
47961;DHT22;33721;48.852;9.936;2023-06-22T02:22:51;18.10;99.90
47961;DHT22;33721;48.852;9.936;2023-06-22T02:25:17;18.10;99.90
47961;DHT22;33721;48.852;9.936;2023-06-22T02:27:42;18.10;99.90
47961;DHT22;33721;48.852;9.936;2023-06-22T02:30:09;18.10;99.90
47961;DHT22;33721;48.852;9.936;2023-06-22T02:32:35;18.10;99.90
47961;DHT22;33721;48.852;9.936;2023-06-22T02:35:01;18.10;99.90
47961;DHT22;33721;48.852;9.936;2023-06-22T02:37:30;18.20;99.90
47961;DHT22;33721;48.852;9.936;2023-06-22T02:39:56;18.20;99.90
47961;DHT22;33721;48.852;9.936;2023-06-22T02:42:21;18.10;99.90
47961;DHT22;33721;48.852;9.936;2023-06-22T02:44:47;18.10;99.90
47961;DHT22;33721;48.852;9.936;2023-06-22T02:47:13;18.00;99.90
47961;DHT22;33721;48.852;9.936;2023-06-22T02:49:39;18.00;99.90
47961;DHT22;33721;48.852;9.936;2023-06-22T02:52:05;18.00;99.90
47961;DHT22;33721;48.852;9.936;2023-06-22T02:54:30;18.00;99.90
47961;DHT22;33721;48.852;9.936;2023-06-22T02:56:56;18.00;99.90
47961;DHT22;33721;48.852;9.936;2023-06-22T02:59:21;17.90;99.90
47961;DHT22;33721;48.852;9.936;2023-06-22T03:01:50;17.80;99.90
47961;DHT22;33721;48.852;9.936;2023-06-22T03:04:17;17.70;99.90
47961;DHT22;33721;48.852;9.936;2023-06-22T03:06:43;17.70;99.90
47961;DHT22;33721;48.852;9.936;2023-06-22T03:09:09;17.70;99.90
47961;DHT22;33721;48.852;9.936;2023-06-22T03:11:34;17.70;99.90
47961;DHT22;33721;48.852;9.936;2023-06-22T03:14:01;17.60;99.90
47961;DHT22;33721;48.852;9.936;2023-06-22T03:16:27;17.60;99.90
47961;DHT22;33721;48.852;9.936;2023-06-22T03:18:53;17.70;99.90
47961;DHT22;33721;48.852;9.936;2023-06-22T03:21:21;17.70;99.90
47961;DHT22;33721;48.852;9.936;2023-06-22T03:23:47;17.80;99.90
47961;DHT22;33721;48.852;9.936;2023-06-22T03:26:16;17.80;99.90
47961;DHT22;33721;48.852;9.936;2023-06-22T03:28:42;17.80;99.90
47961;DHT22;33721;48.852;9.936;2023-06-22T03:31:08;17.80;99.90
47961;DHT22;33721;48.852;9.936;2023-06-22T03:33:33;17.80;99.90
47961;DHT22;33721;48.852;9.936;2023-06-22T03:35:59;17.70;99.90
47961;DHT22;33721;48.852;9.936;2023-06-22T03:38:25;17.70;99.90
47961;DHT22;33721;48.852;9.936;2023-06-22T03:40:50;17.70;99.90
47961;DHT22;33721;48.852;9.936;2023-06-22T03:43:16;17.50;99.90
47961;DHT22;33721;48.852;9.936;2023-06-22T03:45:41;17.50;99.90
47961;DHT22;33721;48.852;9.936;2023-06-22T03:48:07;17.50;99.90
47961;DHT22;33721;48.852;9.936;2023-06-22T03:50:33;17.50;99.90
47961;DHT22;33721;48.852;9.936;2023-06-22T03:52:58;17.60;99.90
47961;DHT22;33721;48.852;9.936;2023-06-22T03:55:24;17.60;99.90
47961;DHT22;33721;48.852;9.936;2023-06-22T03:57:49;17.60;99.90
47961;DHT22;33721;48.852;9.936;2023-06-22T04:00:15;17.70;99.90
47961;DHT22;33721;48.852;9.936;2023-06-22T04:02:41;17.70;99.90
47961;DHT22;33721;48.852;9.936;2023-06-22T04:05:08;17.80;99.90
47961;DHT22;33721;48.852;9.936;2023-06-22T04:07:34;17.90;99.90
47961;DHT22;33721;48.852;9.936;2023-06-22T04:10:03;18.00;99.90
47961;DHT22;33721;48.852;9.936;2023-06-22T04:12:29;18.10;99.90
47961;DHT22;33721;48.852;9.936;2023-06-22T04:14:54;18.10;99.90
47961;DHT22;33721;48.852;9.936;2023-06-22T04:17:20;18.10;99.90
47961;DHT22;33721;48.852;9.936;2023-06-22T04:19:46;18.10;99.90
47961;DHT22;33721;48.852;9.936;2023-06-22T04:22:11;18.20;99.90
47961;DHT22;33721;48.852;9.936;2023-06-22T04:24:37;18.20;99.90
47961;DHT22;33721;48.852;9.936;2023-06-22T04:27:03;18.20;99.90
47961;DHT22;33721;48.852;9.936;2023-06-22T04:29:30;18.20;99.90
47961;DHT22;33721;48.852;9.936;2023-06-22T04:31:58;18.20;99.90
47961;DHT22;33721;48.852;9.936;2023-06-22T04:34:28;18.30;99.90
47961;DHT22;33721;48.852;9.936;2023-06-22T04:36:54;18.30;99.90
47961;DHT22;33721;48.852;9.936;2023-06-22T04:39:21;18.30;99.90
47961;DHT22;33721;48.852;9.936;2023-06-22T04:41:47;18.30;99.90
47961;DHT22;33721;48.852;9.936;2023-06-22T04:44:14;18.30;99.90
47961;DHT22;33721;48.852;9.936;2023-06-22T04:46:58;18.40;99.90
47961;DHT22;33721;48.852;9.936;2023-06-22T04:49:29;18.50;99.90
47961;DHT22;33721;48.852;9.936;2023-06-22T04:51:59;18.60;99.90
47961;DHT22;33721;48.852;9.936;2023-06-22T04:54:25;18.80;99.90
47961;DHT22;33721;48.852;9.936;2023-06-22T04:56:51;19.00;99.90
47961;DHT22;33721;48.852;9.936;2023-06-22T04:59:30;19.10;99.90
47961;DHT22;33721;48.852;9.936;2023-06-22T05:02:00;19.30;99.90
47961;DHT22;33721;48.852;9.936;2023-06-22T05:04:27;19.40;99.90
47961;DHT22;33721;48.852;9.936;2023-06-22T05:06:54;19.50;99.90
47961;DHT22;33721;48.852;9.936;2023-06-22T05:09:21;19.60;99.90
47961;DHT22;33721;48.852;9.936;2023-06-22T05:11:47;19.60;99.90
47961;DHT22;33721;48.852;9.936;2023-06-22T05:14:13;19.60;99.90
47961;DHT22;33721;48.852;9.936;2023-06-22T05:16:41;19.70;99.90
47961;DHT22;33721;48.852;9.936;2023-06-22T05:19:07;19.70;99.90
47961;DHT22;33721;48.852;9.936;2023-06-22T05:21:33;19.80;99.90
47961;DHT22;33721;48.852;9.936;2023-06-22T05:23:59;19.90;99.90
47961;DHT22;33721;48.852;9.936;2023-06-22T05:26:33;20.00;99.90
47961;DHT22;33721;48.852;9.936;2023-06-22T05:28:59;20.20;99.90
47961;DHT22;33721;48.852;9.936;2023-06-22T05:31:26;20.30;99.90
47961;DHT22;33721;48.852;9.936;2023-06-22T05:33:53;20.40;99.90
47961;DHT22;33721;48.852;9.936;2023-06-22T05:36:19;20.50;99.90
47961;DHT22;33721;48.852;9.936;2023-06-22T05:38:56;20.50;99.90
47961;DHT22;33721;48.852;9.936;2023-06-22T05:41:21;20.50;99.90
47961;DHT22;33721;48.852;9.936;2023-06-22T05:43:47;20.60;99.90
47961;DHT22;33721;48.852;9.936;2023-06-22T05:46:13;20.70;99.90
47961;DHT22;33721;48.852;9.936;2023-06-22T05:48:38;20.90;99.90
47961;DHT22;33721;48.852;9.936;2023-06-22T05:51:04;21.10;99.90
47961;DHT22;33721;48.852;9.936;2023-06-22T05:53:30;21.30;99.90
47961;DHT22;33721;48.852;9.936;2023-06-22T05:55:55;21.40;99.90
47961;DHT22;33721;48.852;9.936;2023-06-22T05:58:21;21.50;99.90
47961;DHT22;33721;48.852;9.936;2023-06-22T06:00:47;21.70;99.90
47961;DHT22;33721;48.852;9.936;2023-06-22T06:03:13;21.80;99.90
47961;DHT22;33721;48.852;9.936;2023-06-22T06:05:42;21.70;99.90
47961;DHT22;33721;48.852;9.936;2023-06-22T06:08:08;21.80;99.90
47961;DHT22;33721;48.852;9.936;2023-06-22T06:10:36;22.00;99.90
47961;DHT22;33721;48.852;9.936;2023-06-22T06:13:01;22.10;99.90
47961;DHT22;33721;48.852;9.936;2023-06-22T06:15:28;22.20;99.90
47961;DHT22;33721;48.852;9.936;2023-06-22T06:17:54;22.30;99.90
47961;DHT22;33721;48.852;9.936;2023-06-22T06:20:22;22.50;99.90
47961;DHT22;33721;48.852;9.936;2023-06-22T06:22:48;22.70;99.90
47961;DHT22;33721;48.852;9.936;2023-06-22T06:25:14;22.70;99.90
47961;DHT22;33721;48.852;9.936;2023-06-22T06:27:46;22.80;99.90
47961;DHT22;33721;48.852;9.936;2023-06-22T06:30:13;23.00;99.90
47961;DHT22;33721;48.852;9.936;2023-06-22T06:32:40;23.00;99.90
47961;DHT22;33721;48.852;9.936;2023-06-22T06:35:06;23.00;99.90
47961;DHT22;33721;48.852;9.936;2023-06-22T06:37:36;23.20;99.90
47961;DHT22;33721;48.852;9.936;2023-06-22T06:40:04;23.30;99.90
47961;DHT22;33721;48.852;9.936;2023-06-22T06:42:31;23.30;99.90
47961;DHT22;33721;48.852;9.936;2023-06-22T06:44:57;23.20;99.90
47961;DHT22;33721;48.852;9.936;2023-06-22T06:47:22;23.30;99.90
47961;DHT22;33721;48.852;9.936;2023-06-22T06:49:48;23.50;99.90
47961;DHT22;33721;48.852;9.936;2023-06-22T06:52:14;23.50;99.90
47961;DHT22;33721;48.852;9.936;2023-06-22T06:54:43;23.50;99.90
47961;DHT22;33721;48.852;9.936;2023-06-22T06:57:08;23.60;99.90
47961;DHT22;33721;48.852;9.936;2023-06-22T06:59:36;23.80;99.90
47961;DHT22;33721;48.852;9.936;2023-06-22T07:02:01;24.00;99.90
47961;DHT22;33721;48.852;9.936;2023-06-22T07:04:27;24.10;99.90
47961;DHT22;33721;48.852;9.936;2023-06-22T07:06:53;24.20;99.90
47961;DHT22;33721;48.852;9.936;2023-06-22T07:09:18;24.30;99.90
47961;DHT22;33721;48.852;9.936;2023-06-22T07:11:44;24.40;99.90
47961;DHT22;33721;48.852;9.936;2023-06-22T07:14:09;24.60;99.90
47961;DHT22;33721;48.852;9.936;2023-06-22T07:16:35;24.90;99.90
47961;DHT22;33721;48.852;9.936;2023-06-22T07:19:01;24.80;99.90
47961;DHT22;33721;48.852;9.936;2023-06-22T07:21:26;24.90;99.90
47961;DHT22;33721;48.852;9.936;2023-06-22T07:23:52;25.00;99.90
47961;DHT22;33721;48.852;9.936;2023-06-22T07:26:18;25.20;99.90
47961;DHT22;33721;48.852;9.936;2023-06-22T07:28:43;25.40;99.90
47961;DHT22;33721;48.852;9.936;2023-06-22T07:31:09;25.60;99.90
47961;DHT22;33721;48.852;9.936;2023-06-22T07:33:35;25.80;99.90
47961;DHT22;33721;48.852;9.936;2023-06-22T07:36:00;25.90;99.90
47961;DHT22;33721;48.852;9.936;2023-06-22T07:38:28;26.20;99.90
47961;DHT22;33721;48.852;9.936;2023-06-22T07:40:53;26.30;99.90
47961;DHT22;33721;48.852;9.936;2023-06-22T07:43:19;26.40;99.90
47961;DHT22;33721;48.852;9.936;2023-06-22T07:45:51;26.50;99.90
47961;DHT22;33721;48.852;9.936;2023-06-22T07:48:21;26.60;99.90
47961;DHT22;33721;48.852;9.936;2023-06-22T07:50:48;26.80;99.90
47961;DHT22;33721;48.852;9.936;2023-06-22T07:53:13;26.80;99.90
47961;DHT22;33721;48.852;9.936;2023-06-22T07:55:39;26.90;99.90
47961;DHT22;33721;48.852;9.936;2023-06-22T07:58:05;27.00;99.90
47961;DHT22;33721;48.852;9.936;2023-06-22T08:00:30;27.10;99.90
47961;DHT22;33721;48.852;9.936;2023-06-22T08:02:56;27.10;99.90
47961;DHT22;33721;48.852;9.936;2023-06-22T08:05:24;27.20;99.90
47961;DHT22;33721;48.852;9.936;2023-06-22T08:07:50;27.40;99.90
47961;DHT22;33721;48.852;9.936;2023-06-22T08:10:16;27.40;99.90
47961;DHT22;33721;48.852;9.936;2023-06-22T08:12:42;27.40;99.90
47961;DHT22;33721;48.852;9.936;2023-06-22T08:15:09;27.70;99.90
47961;DHT22;33721;48.852;9.936;2023-06-22T08:17:39;27.70;99.90
47961;DHT22;33721;48.852;9.936;2023-06-22T08:20:06;27.80;99.90
47961;DHT22;33721;48.852;9.936;2023-06-22T08:22:35;27.80;99.90
47961;DHT22;33721;48.852;9.936;2023-06-22T08:25:04;27.70;99.90
47961;DHT22;33721;48.852;9.936;2023-06-22T08:27:30;27.70;99.90
47961;DHT22;33721;48.852;9.936;2023-06-22T08:29:59;27.90;99.90
47961;DHT22;33721;48.852;9.936;2023-06-22T08:32:29;28.10;99.90
47961;DHT22;33721;48.852;9.936;2023-06-22T08:34:56;28.30;99.90
47961;DHT22;33721;48.852;9.936;2023-06-22T08:37:22;28.30;99.90
47961;DHT22;33721;48.852;9.936;2023-06-22T08:39:50;28.30;99.90
47961;DHT22;33721;48.852;9.936;2023-06-22T08:42:16;28.30;99.90
47961;DHT22;33721;48.852;9.936;2023-06-22T08:44:42;28.30;99.90
47961;DHT22;33721;48.852;9.936;2023-06-22T08:47:07;28.40;99.90
47961;DHT22;33721;48.852;9.936;2023-06-22T08:49:33;28.60;99.90
47961;DHT22;33721;48.852;9.936;2023-06-22T08:52:01;28.70;99.90
47961;DHT22;33721;48.852;9.936;2023-06-22T08:54:29;28.70;99.90
47961;DHT22;33721;48.852;9.936;2023-06-22T08:57:00;28.60;99.90
47961;DHT22;33721;48.852;9.936;2023-06-22T08:59:31;28.70;99.70
47961;DHT22;33721;48.852;9.936;2023-06-22T09:01:57;28.80;99.50
47961;DHT22;33721;48.852;9.936;2023-06-22T09:04:24;29.00;99.90
47961;DHT22;33721;48.852;9.936;2023-06-22T09:06:49;29.20;99.20
47961;DHT22;33721;48.852;9.936;2023-06-22T09:09:16;29.20;99.00
47961;DHT22;33721;48.852;9.936;2023-06-22T09:11:42;29.30;99.00
47961;DHT22;33721;48.852;9.936;2023-06-22T09:14:09;29.50;99.40
47961;DHT22;33721;48.852;9.936;2023-06-22T09:16:35;29.70;98.90
47961;DHT22;33721;48.852;9.936;2023-06-22T09:19:01;29.80;98.20
47961;DHT22;33721;48.852;9.936;2023-06-22T09:21:27;30.00;97.50
47961;DHT22;33721;48.852;9.936;2023-06-22T09:23:52;30.10;97.70
47961;DHT22;33721;48.852;9.936;2023-06-22T09:26:18;30.10;96.90
47961;DHT22;33721;48.852;9.936;2023-06-22T09:28:44;30.20;97.10
47961;DHT22;33721;48.852;9.936;2023-06-22T09:31:10;30.30;96.00
47961;DHT22;33721;48.852;9.936;2023-06-22T09:33:36;30.40;96.10
47961;DHT22;33721;48.852;9.936;2023-06-22T09:36:08;30.60;96.40
47961;DHT22;33721;48.852;9.936;2023-06-22T09:38:38;30.80;95.70
47961;DHT22;33721;48.852;9.936;2023-06-22T09:41:04;30.50;95.40
47961;DHT22;33721;48.852;9.936;2023-06-22T09:43:32;30.60;95.50
47961;DHT22;33721;48.852;9.936;2023-06-22T09:46:04;30.90;94.80
47961;DHT22;33721;48.852;9.936;2023-06-22T09:48:34;31.20;93.20
47961;DHT22;33721;48.852;9.936;2023-06-22T09:51:00;30.90;93.30
47961;DHT22;33721;48.852;9.936;2023-06-22T09:53:26;30.90;93.40
47961;DHT22;33721;48.852;9.936;2023-06-22T09:55:54;31.10;93.50
47961;DHT22;33721;48.852;9.936;2023-06-22T09:58:20;31.40;94.10
47961;DHT22;33721;48.852;9.936;2023-06-22T10:00:46;31.80;93.40
47961;DHT22;33721;48.852;9.936;2023-06-22T10:03:11;32.00;92.70
47961;DHT22;33721;48.852;9.936;2023-06-22T10:05:37;32.00;92.70
47961;DHT22;33721;48.852;9.936;2023-06-22T10:08:03;31.90;92.40
47961;DHT22;33721;48.852;9.936;2023-06-22T10:10:29;32.00;92.50
47961;DHT22;33721;48.852;9.936;2023-06-22T10:12:56;32.00;92.60
47961;DHT22;33721;48.852;9.936;2023-06-22T10:15:23;31.80;91.50
47961;DHT22;33721;48.852;9.936;2023-06-22T10:17:54;31.30;92.70
47961;DHT22;33721;48.852;9.936;2023-06-22T10:20:20;31.20;93.10
47961;DHT22;33721;48.852;9.936;2023-06-22T10:22:47;31.30;92.10
47961;DHT22;33721;48.852;9.936;2023-06-22T10:25:13;31.30;92.30
47961;DHT22;33721;48.852;9.936;2023-06-22T10:27:42;31.10;92.50
47961;DHT22;33721;48.852;9.936;2023-06-22T10:30:11;31.10;93.10
47961;DHT22;33721;48.852;9.936;2023-06-22T10:32:41;31.30;94.40
47961;DHT22;33721;48.852;9.936;2023-06-22T10:35:12;31.50;92.60
47961;DHT22;33721;48.852;9.936;2023-06-22T10:37:44;31.50;92.70
47961;DHT22;33721;48.852;9.936;2023-06-22T10:40:13;31.60;92.50
47961;DHT22;33721;48.852;9.936;2023-06-22T10:42:49;31.80;91.60
47961;DHT22;33721;48.852;9.936;2023-06-22T10:45:15;32.20;91.10
47961;DHT22;33721;48.852;9.936;2023-06-22T10:47:41;32.70;90.80
47961;DHT22;33721;48.852;9.936;2023-06-22T10:50:12;32.90;90.10
47961;DHT22;33721;48.852;9.936;2023-06-22T10:52:38;33.00;90.50
47961;DHT22;33721;48.852;9.936;2023-06-22T10:55:07;32.90;87.40
47961;DHT22;33721;48.852;9.936;2023-06-22T10:57:33;32.60;89.80
47961;DHT22;33721;48.852;9.936;2023-06-22T10:59:59;32.70;87.70
47961;DHT22;33721;48.852;9.936;2023-06-22T11:02:25;32.40;85.70
47961;DHT22;33721;48.852;9.936;2023-06-22T11:04:53;32.40;88.90
47961;DHT22;33721;48.852;9.936;2023-06-22T11:07:19;32.90;88.70
47961;DHT22;33721;48.852;9.936;2023-06-22T11:09:45;33.50;85.70
47961;DHT22;33721;48.852;9.936;2023-06-22T11:12:13;33.40;85.60
47961;DHT22;33721;48.852;9.936;2023-06-22T11:14:39;33.10;84.60
47961;DHT22;33721;48.852;9.936;2023-06-22T11:17:05;32.80;88.20
47961;DHT22;33721;48.852;9.936;2023-06-22T11:19:31;32.60;85.10
47961;DHT22;33721;48.852;9.936;2023-06-22T11:21:56;32.40;85.10
47961;DHT22;33721;48.852;9.936;2023-06-22T11:24:22;32.50;87.70
47961;DHT22;33721;48.852;9.936;2023-06-22T11:26:48;32.80;85.10
47961;DHT22;33721;48.852;9.936;2023-06-22T11:29:14;32.90;85.10
47961;DHT22;33721;48.852;9.936;2023-06-22T11:31:42;32.70;85.70
47961;DHT22;33721;48.852;9.936;2023-06-22T11:34:09;32.30;85.60
47961;DHT22;33721;48.852;9.936;2023-06-22T11:36:34;32.40;87.70
47961;DHT22;33721;48.852;9.936;2023-06-22T11:39:01;32.50;85.70
47961;DHT22;33721;48.852;9.936;2023-06-22T11:41:27;32.70;86.60
47961;DHT22;33721;48.852;9.936;2023-06-22T11:43:53;32.80;84.00
47961;DHT22;33721;48.852;9.936;2023-06-22T11:46:18;33.10;83.00
47961;DHT22;33721;48.852;9.936;2023-06-22T11:48:47;33.00;82.90
47961;DHT22;33721;48.852;9.936;2023-06-22T11:51:14;32.60;82.50
47961;DHT22;33721;48.852;9.936;2023-06-22T11:53:39;32.70;82.10
47961;DHT22;33721;48.852;9.936;2023-06-22T11:56:05;33.20;86.00
47961;DHT22;33721;48.852;9.936;2023-06-22T11:58:33;33.90;83.70
47961;DHT22;33721;48.852;9.936;2023-06-22T12:00:59;34.10;82.00
47961;DHT22;33721;48.852;9.936;2023-06-22T12:03:25;33.70;82.50
47961;DHT22;33721;48.852;9.936;2023-06-22T12:05:51;33.70;81.10
47961;DHT22;33721;48.852;9.936;2023-06-22T12:08:17;33.80;80.40
47961;DHT22;33721;48.852;9.936;2023-06-22T12:10:44;33.80;80.20
47961;DHT22;33721;48.852;9.936;2023-06-22T12:13:09;33.30;80.70
47961;DHT22;33721;48.852;9.936;2023-06-22T12:15:35;32.80;84.10
47961;DHT22;33721;48.852;9.936;2023-06-22T12:18:00;32.40;82.90
47961;DHT22;33721;48.852;9.936;2023-06-22T12:20:26;32.20;85.20
47961;DHT22;33721;48.852;9.936;2023-06-22T12:22:52;32.10;85.40
47961;DHT22;33721;48.852;9.936;2023-06-22T12:25:19;32.10;84.90
47961;DHT22;33721;48.852;9.936;2023-06-22T12:27:45;32.10;84.00
47961;DHT22;33721;48.852;9.936;2023-06-22T12:30:10;31.80;83.50
47961;DHT22;33721;48.852;9.936;2023-06-22T12:32:36;31.60;87.10
47961;DHT22;33721;48.852;9.936;2023-06-22T12:35:02;31.50;89.30
47961;DHT22;33721;48.852;9.936;2023-06-22T12:37:27;31.50;89.50
47961;DHT22;33721;48.852;9.936;2023-06-22T12:39:54;31.60;89.40
47961;DHT22;33721;48.852;9.936;2023-06-22T12:42:20;31.80;86.20
47961;DHT22;33721;48.852;9.936;2023-06-22T12:44:46;32.10;86.70
47961;DHT22;33721;48.852;9.936;2023-06-22T12:47:12;32.40;86.90
47961;DHT22;33721;48.852;9.936;2023-06-22T12:49:38;32.60;85.60
47961;DHT22;33721;48.852;9.936;2023-06-22T12:52:09;32.70;85.80
47961;DHT22;33721;48.852;9.936;2023-06-22T12:54:35;32.80;84.40
47961;DHT22;33721;48.852;9.936;2023-06-22T12:57:01;32.90;84.20
47961;DHT22;33721;48.852;9.936;2023-06-22T12:59:27;32.60;83.40
47961;DHT22;33721;48.852;9.936;2023-06-22T13:01:52;32.30;85.20
47961;DHT22;33721;48.852;9.936;2023-06-22T13:04:18;32.10;88.60
47961;DHT22;33721;48.852;9.936;2023-06-22T13:06:45;32.00;85.50
47961;DHT22;33721;48.852;9.936;2023-06-22T13:09:14;31.90;86.00
47961;DHT22;33721;48.852;9.936;2023-06-22T13:11:41;31.90;87.40
47961;DHT22;33721;48.852;9.936;2023-06-22T13:14:06;32.00;88.40
47961;DHT22;33721;48.852;9.936;2023-06-22T13:16:32;32.00;90.00
47961;DHT22;33721;48.852;9.936;2023-06-22T13:18:58;31.90;87.50
47961;DHT22;33721;48.852;9.936;2023-06-22T13:21:23;31.70;86.30
47961;DHT22;33721;48.852;9.936;2023-06-22T13:23:49;31.70;87.20
47961;DHT22;33721;48.852;9.936;2023-06-22T13:26:15;31.50;87.90
47961;DHT22;33721;48.852;9.936;2023-06-22T13:28:40;31.40;87.10
47961;DHT22;33721;48.852;9.936;2023-06-22T13:31:06;31.40;89.00
47961;DHT22;33721;48.852;9.936;2023-06-22T13:33:31;31.40;90.00
47961;DHT22;33721;48.852;9.936;2023-06-22T13:35:57;31.50;87.70
47961;DHT22;33721;48.852;9.936;2023-06-22T13:38:23;31.60;86.40
47961;DHT22;33721;48.852;9.936;2023-06-22T13:40:49;31.60;88.60
47961;DHT22;33721;48.852;9.936;2023-06-22T13:43:15;31.60;87.50
47961;DHT22;33721;48.852;9.936;2023-06-22T13:45:42;31.60;90.00
47961;DHT22;33721;48.852;9.936;2023-06-22T13:48:09;31.60;90.40
47961;DHT22;33721;48.852;9.936;2023-06-22T13:50:34;31.70;91.00
47961;DHT22;33721;48.852;9.936;2023-06-22T13:53:00;31.80;89.80
47961;DHT22;33721;48.852;9.936;2023-06-22T13:55:26;31.70;90.60
47961;DHT22;33721;48.852;9.936;2023-06-22T13:57:52;31.60;91.00
47961;DHT22;33721;48.852;9.936;2023-06-22T14:00:18;31.60;90.00
47961;DHT22;33721;48.852;9.936;2023-06-22T14:02:44;31.60;90.70
47961;DHT22;33721;48.852;9.936;2023-06-22T14:05:10;31.40;91.90
47961;DHT22;33721;48.852;9.936;2023-06-22T14:07:36;31.30;90.40
47961;DHT22;33721;48.852;9.936;2023-06-22T14:10:03;31.20;90.80
47961;DHT22;33721;48.852;9.936;2023-06-22T14:12:29;31.20;90.10
47961;DHT22;33721;48.852;9.936;2023-06-22T14:14:54;31.10;90.50
47961;DHT22;33721;48.852;9.936;2023-06-22T14:17:20;31.20;89.20
47961;DHT22;33721;48.852;9.936;2023-06-22T14:19:51;31.40;89.10
47961;DHT22;33721;48.852;9.936;2023-06-22T14:22:20;31.50;89.90
47961;DHT22;33721;48.852;9.936;2023-06-22T14:24:46;31.60;90.00
47961;DHT22;33721;48.852;9.936;2023-06-22T14:27:12;31.60;87.40
47961;DHT22;33721;48.852;9.936;2023-06-22T14:29:38;31.70;86.60
47961;DHT22;33721;48.852;9.936;2023-06-22T14:32:07;31.70;88.20
47961;DHT22;33721;48.852;9.936;2023-06-22T14:34:34;31.70;86.10
47961;DHT22;33721;48.852;9.936;2023-06-22T14:37:02;31.70;86.80
47961;DHT22;33721;48.852;9.936;2023-06-22T14:39:28;31.60;84.80
47961;DHT22;33721;48.852;9.936;2023-06-22T14:41:53;31.50;88.60
47961;DHT22;33721;48.852;9.936;2023-06-22T14:44:19;31.60;90.20
47961;DHT22;33721;48.852;9.936;2023-06-22T14:46:45;31.90;86.50
47961;DHT22;33721;48.852;9.936;2023-06-22T14:49:10;32.20;87.40
47961;DHT22;33721;48.852;9.936;2023-06-22T14:51:36;32.50;85.80
47961;DHT22;33721;48.852;9.936;2023-06-22T14:54:01;32.70;76.50
47961;DHT22;33721;48.852;9.936;2023-06-22T14:56:27;32.70;80.50
47961;DHT22;33721;48.852;9.936;2023-06-22T14:58:53;32.40;78.70
47961;DHT22;33721;48.852;9.936;2023-06-22T15:01:18;32.30;81.70
47961;DHT22;33721;48.852;9.936;2023-06-22T15:03:44;32.10;77.70
47961;DHT22;33721;48.852;9.936;2023-06-22T15:06:10;32.00;76.90
47961;DHT22;33721;48.852;9.936;2023-06-22T15:08:39;32.00;82.30
47961;DHT22;33721;48.852;9.936;2023-06-22T15:11:05;31.90;77.60
47961;DHT22;33721;48.852;9.936;2023-06-22T15:13:31;31.90;81.70
47961;DHT22;33721;48.852;9.936;2023-06-22T15:16:03;31.90;82.50
47961;DHT22;33721;48.852;9.936;2023-06-22T15:18:29;31.90;83.80
47961;DHT22;33721;48.852;9.936;2023-06-22T15:20:54;31.80;80.00
47961;DHT22;33721;48.852;9.936;2023-06-22T15:23:20;32.00;79.80
47961;DHT22;33721;48.852;9.936;2023-06-22T15:25:46;32.20;80.80
47961;DHT22;33721;48.852;9.936;2023-06-22T15:28:12;32.20;72.20
47961;DHT22;33721;48.852;9.936;2023-06-22T15:30:38;32.10;74.40
47961;DHT22;33721;48.852;9.936;2023-06-22T15:33:03;31.90;76.50